createdAt,value
2018-03-04T00:00:28.030Z,-6.38
2018-03-04T00:01:27.955Z,-6.42
2018-03-04T00:02:27.832Z,-6.42
2018-03-04T00:03:27.743Z,-6.41
2018-03-04T00:04:27.678Z,-6.50
2018-03-04T00:05:27.544Z,-6.50
2018-03-04T00:06:27.410Z,-6.61
2018-03-04T00:07:27.309Z,-6.59
2018-03-04T00:08:27.247Z,-6.67
2018-03-04T00:09:27.094Z,-6.77
2018-03-04T00:10:27.021Z,-6.81
2018-03-04T00:11:26.889Z,-6.93
2018-03-04T00:12:26.794Z,-6.95
2018-03-04T00:13:26.686Z,-7.05
2018-03-04T00:14:26.582Z,-7.11
2018-03-04T00:15:26.487Z,-7.21
2018-03-04T00:16:26.425Z,-7.31
2018-03-04T00:17:26.279Z,-7.38
2018-03-04T00:18:26.185Z,-7.32
2018-03-04T00:19:26.084Z,-7.49
2018-03-04T00:20:25.973Z,-7.57
2018-03-04T00:21:25.912Z,-7.56
2018-03-04T00:22:25.852Z,-7.60
2018-03-04T00:23:25.707Z,-7.56
2018-03-04T00:24:25.593Z,-7.57
2018-03-04T00:25:25.478Z,-7.64
2018-03-04T00:26:25.389Z,-7.73
2018-03-04T00:27:25.284Z,-7.73
2018-03-04T00:28:25.200Z,-7.74
2018-03-04T00:29:25.061Z,-7.71
2018-03-04T00:30:24.981Z,-7.71
2018-03-04T00:31:24.877Z,-7.74
2018-03-04T00:32:24.789Z,-7.77
2018-03-04T00:33:24.655Z,-7.78
2018-03-04T00:34:24.599Z,-7.56
2018-03-04T00:35:24.435Z,-7.73
2018-03-04T00:36:24.356Z,-7.68
2018-03-04T00:37:24.234Z,-7.71
2018-03-04T00:38:24.183Z,-7.78
2018-03-04T00:39:24.035Z,-7.76
2018-03-04T00:40:23.952Z,-7.87
2018-03-04T00:41:23.829Z,-7.96
2018-03-04T00:42:23.726Z,-7.98
2018-03-04T00:43:23.616Z,-8.04
2018-03-04T00:44:23.514Z,-8.10
2018-03-04T00:45:23.419Z,-8.06
2018-03-04T00:46:23.387Z,-8.10
2018-03-04T00:47:23.243Z,-8.08
2018-03-04T00:48:23.138Z,-7.99
2018-03-04T00:49:23.044Z,-8.03
2018-03-04T00:50:22.911Z,-8.03
2018-03-04T00:51:22.838Z,-7.92
2018-03-04T00:52:22.770Z,-7.88
2018-03-04T00:53:22.608Z,-7.94
2018-03-04T00:54:22.543Z,-7.94
2018-03-04T00:55:22.415Z,-7.92
2018-03-04T00:56:22.320Z,-8.03
2018-03-04T00:57:22.219Z,-8.03
2018-03-04T00:58:22.140Z,-8.16
2018-03-04T00:59:21.985Z,-8.10
2018-03-04T01:00:21.881Z,-8.14
2018-03-04T01:01:21.776Z,-8.13
2018-03-04T01:02:21.669Z,-8.21
2018-03-04T01:03:21.576Z,-8.16
2018-03-04T01:04:21.503Z,-8.14
2018-03-04T01:05:21.375Z,-8.31
2018-03-04T01:06:21.267Z,-8.27
2018-03-04T01:07:21.154Z,-8.34
2018-03-04T01:08:21.051Z,-8.32
2018-03-04T01:09:20.962Z,-8.32
2018-03-04T01:10:20.936Z,-8.45
2018-03-04T01:11:20.757Z,-8.42
2018-03-04T01:12:20.669Z,-8.37
2018-03-04T01:13:20.572Z,-8.43
2018-03-04T01:14:20.467Z,-8.37
2018-03-04T01:15:20.373Z,-8.47
2018-03-04T01:16:20.314Z,-8.45
2018-03-04T01:17:20.170Z,-8.52
2018-03-04T01:18:20.047Z,-8.60
2018-03-04T01:19:19.927Z,-8.71
2018-03-04T01:20:19.845Z,-8.78
2018-03-04T01:21:19.752Z,-8.73
2018-03-04T01:22:19.673Z,-8.71
2018-03-04T01:23:19.515Z,-8.76
2018-03-04T01:24:19.446Z,-8.63
2018-03-04T01:25:19.307Z,-8.71
2018-03-04T01:26:19.210Z,-8.61
2018-03-04T01:27:19.105Z,-8.79
2018-03-04T01:28:19.074Z,-8.81
2018-03-04T01:29:18.905Z,-8.73
2018-03-04T01:30:18.794Z,-8.70
2018-03-04T01:31:18.690Z,-8.71
2018-03-04T01:32:18.593Z,-8.76
2018-03-04T01:33:18.481Z,-8.85
2018-03-04T01:34:18.403Z,-8.70
2018-03-04T01:35:18.284Z,-8.78
2018-03-04T01:36:18.169Z,-8.82
2018-03-04T01:37:18.068Z,-8.78
2018-03-04T01:38:18.002Z,-8.64
2018-03-04T01:39:17.892Z,-8.74
2018-03-04T01:40:17.849Z,-8.64
2018-03-04T01:41:17.691Z,-8.67
2018-03-04T01:42:17.589Z,-8.66
2018-03-04T01:43:17.475Z,-8.73
2018-03-04T01:44:17.371Z,-8.78
2018-03-04T01:45:17.253Z,-8.79
2018-03-04T01:46:17.214Z,-8.78
2018-03-04T01:47:17.068Z,-8.88
2018-03-04T01:48:16.977Z,-8.86
2018-03-04T01:49:16.870Z,-8.99
2018-03-04T01:50:16.739Z,-8.89
2018-03-04T01:51:16.612Z,-8.94
2018-03-04T01:52:16.564Z,-9.00
2018-03-04T01:53:16.419Z,-8.99
2018-03-04T01:54:16.358Z,-8.99
2018-03-04T01:55:16.209Z,-8.96
2018-03-04T01:56:16.110Z,-9.05
2018-03-04T01:57:16.008Z,-9.05
2018-03-04T01:58:15.931Z,-9.02
2018-03-04T01:59:15.803Z,-9.10
2018-03-04T02:00:15.712Z,-9.03
2018-03-04T02:01:15.598Z,-8.96
2018-03-04T02:02:15.484Z,-9.00
2018-03-04T02:03:15.384Z,-8.94
2018-03-04T02:04:15.352Z,-8.89
2018-03-04T02:05:15.182Z,-8.96
2018-03-04T02:06:15.096Z,-8.96
2018-03-04T02:07:14.984Z,-8.89
2018-03-04T02:08:14.896Z,-8.86
2018-03-04T02:09:14.789Z,-9.00
2018-03-04T02:10:14.738Z,-8.96
2018-03-04T02:11:14.574Z,-9.02
2018-03-04T02:12:14.459Z,-8.92
2018-03-04T02:13:14.386Z,-9.02
2018-03-04T02:14:14.283Z,-9.06
2018-03-04T02:15:14.165Z,-9.03
2018-03-04T02:16:14.105Z,-9.10
2018-03-04T02:17:13.958Z,-9.10
2018-03-04T02:18:13.840Z,-9.09
2018-03-04T02:19:13.727Z,-9.06
2018-03-04T02:20:13.620Z,-9.07
2018-03-04T02:21:13.516Z,-8.99
2018-03-04T02:22:13.459Z,-8.99
2018-03-04T02:23:13.314Z,-8.96
2018-03-04T02:24:13.205Z,-8.91
2018-03-04T02:25:13.095Z,-8.88
2018-03-04T02:26:13.000Z,-8.82
2018-03-04T02:27:12.900Z,-8.78
2018-03-04T02:28:12.819Z,-8.79
2018-03-04T02:29:12.689Z,-8.71
2018-03-04T02:30:12.621Z,-8.78
2018-03-04T02:31:12.523Z,-8.66
2018-03-04T02:32:12.387Z,-8.66
2018-03-04T02:33:12.301Z,-8.61
2018-03-04T02:34:12.218Z,-8.60
2018-03-04T02:35:12.100Z,-8.58
2018-03-04T02:36:11.978Z,-8.55
2018-03-04T02:37:11.924Z,-8.53
2018-03-04T02:38:11.787Z,-8.49
2018-03-04T02:39:11.701Z,-8.52
2018-03-04T02:40:11.650Z,-8.45
2018-03-04T02:41:11.482Z,-8.39
2018-03-04T02:42:11.392Z,-8.52
2018-03-04T02:43:11.246Z,-8.37
2018-03-04T02:44:11.172Z,-8.39
2018-03-04T02:45:11.075Z,-8.35
2018-03-04T02:46:10.990Z,-8.34
2018-03-04T02:47:10.864Z,-8.35
2018-03-04T02:48:10.748Z,-8.40
2018-03-04T02:49:10.644Z,-8.28
2018-03-04T02:50:10.552Z,-8.34
2018-03-04T02:51:10.456Z,-8.43
2018-03-04T02:52:10.376Z,-8.42
2018-03-04T02:53:10.228Z,-8.32
2018-03-04T02:54:10.118Z,-8.34
2018-03-04T02:55:10.021Z,-8.32
2018-03-04T02:56:09.929Z,-8.40
2018-03-04T02:57:09.858Z,-8.34
2018-03-04T02:58:09.784Z,-8.39
2018-03-04T02:59:09.617Z,-8.34
2018-03-04T03:00:09.564Z,-8.14
2018-03-04T03:01:09.447Z,-8.18
2018-03-04T03:02:09.335Z,-8.24
2018-03-04T03:03:09.209Z,-8.18
2018-03-04T03:04:09.144Z,-8.10
2018-03-04T03:05:09.015Z,-8.17
2018-03-04T03:06:08.926Z,-8.11
2018-03-04T03:07:08.850Z,-8.14
2018-03-04T03:08:08.727Z,-8.06
2018-03-04T03:09:08.588Z,-8.08
2018-03-04T03:10:08.520Z,-8.07
2018-03-04T03:11:08.381Z,-7.99
2018-03-04T03:12:08.279Z,-7.96
2018-03-04T03:13:08.194Z,-7.98
2018-03-04T03:14:08.074Z,-7.92
2018-03-04T03:15:07.967Z,-7.84
2018-03-04T03:16:07.914Z,-7.78
2018-03-04T03:17:07.757Z,-7.73
2018-03-04T03:18:07.663Z,-7.70
2018-03-04T03:19:07.568Z,-7.71
2018-03-04T03:20:07.455Z,-7.76
2018-03-04T03:21:07.340Z,-7.73
2018-03-04T03:22:07.319Z,-7.60
2018-03-04T03:23:07.172Z,-7.56
2018-03-04T03:24:07.085Z,-7.56
2018-03-04T03:25:06.979Z,-7.53
2018-03-04T03:26:06.874Z,-7.53
2018-03-04T03:27:06.748Z,-7.49
2018-03-04T03:28:06.683Z,-7.47
2018-03-04T03:29:06.571Z,-7.41
2018-03-04T03:30:06.443Z,-7.35
2018-03-04T03:31:06.334Z,-7.37
2018-03-04T03:32:06.235Z,-7.34
2018-03-04T03:33:06.137Z,-7.31
2018-03-04T03:34:06.083Z,-7.31
2018-03-04T03:35:05.907Z,-7.28
2018-03-04T03:36:05.806Z,-7.24
2018-03-04T03:37:05.706Z,-7.28
2018-03-04T03:38:05.601Z,-7.16
2018-03-04T03:39:05.501Z,-7.16
2018-03-04T03:40:06.223Z,-7.17
2018-03-04T03:41:05.283Z,-7.21
2018-03-04T03:42:05.201Z,-7.13
2018-03-04T03:43:05.083Z,-7.13
2018-03-04T03:44:04.985Z,-7.10
2018-03-04T03:45:04.875Z,-7.10
2018-03-04T03:46:04.835Z,-7.10
2018-03-04T03:47:04.685Z,-7.07
2018-03-04T03:48:04.632Z,-7.08
2018-03-04T03:49:04.499Z,-6.96
2018-03-04T03:50:04.415Z,-6.99
2018-03-04T03:51:04.306Z,-6.95
2018-03-04T03:52:04.234Z,-6.84
2018-03-04T03:53:04.102Z,-6.98
2018-03-04T03:54:04.004Z,-6.92
2018-03-04T03:55:03.927Z,-6.90
2018-03-04T03:56:03.801Z,-6.87
2018-03-04T03:57:03.704Z,-6.79
2018-03-04T03:58:03.665Z,-6.82
2018-03-04T03:59:03.496Z,-6.82
2018-03-04T04:00:03.354Z,-6.71
2018-03-04T04:01:03.251Z,-6.69
2018-03-04T04:02:03.159Z,-6.67
2018-03-04T04:03:03.056Z,-6.67
2018-03-04T04:04:02.981Z,-6.66
2018-03-04T04:05:02.837Z,-6.66
2018-03-04T04:06:02.746Z,-6.66
2018-03-04T04:07:02.643Z,-6.67
2018-03-04T04:08:02.548Z,-6.67
2018-03-04T04:09:02.430Z,-6.55
2018-03-04T04:10:02.407Z,-6.52
2018-03-04T04:11:02.234Z,-6.63
2018-03-04T04:12:02.166Z,-6.44
2018-03-04T04:13:02.070Z,-6.59
2018-03-04T04:14:01.969Z,-6.55
2018-03-04T04:15:01.869Z,-6.52
2018-03-04T04:16:01.798Z,-6.45
2018-03-04T04:17:01.713Z,-6.42
2018-03-04T04:18:01.546Z,-6.39
2018-03-04T04:19:01.437Z,-6.35
2018-03-04T04:20:01.354Z,-6.38
2018-03-04T04:21:01.240Z,-6.31
2018-03-04T04:22:01.220Z,-6.23
2018-03-04T04:23:01.056Z,-6.27
2018-03-04T04:24:00.942Z,-6.37
2018-03-04T04:25:00.820Z,-6.35
2018-03-04T04:26:00.726Z,-6.23
2018-03-04T04:27:00.618Z,-6.31
2018-03-04T04:28:00.623Z,-6.26
2018-03-04T04:29:00.409Z,-6.23
2018-03-04T04:30:00.322Z,-6.17
2018-03-04T04:31:00.211Z,-6.21
2018-03-04T04:32:00.110Z,-6.06
2018-03-04T04:33:00.012Z,-6.13
2018-03-04T04:33:59.955Z,-6.08
2018-03-04T04:34:59.829Z,-6.00
2018-03-04T04:35:59.724Z,-5.99
2018-03-04T04:36:59.635Z,-6.03
2018-03-04T04:37:59.532Z,-5.95
2018-03-04T04:38:59.417Z,-5.98
2018-03-04T04:39:59.382Z,-5.92
2018-03-04T04:40:59.221Z,-5.84
2018-03-04T04:41:59.171Z,-5.85
2018-03-04T04:42:59.029Z,-5.85
2018-03-04T04:43:58.934Z,-5.81
2018-03-04T04:44:58.837Z,-5.81
2018-03-04T04:45:58.778Z,-5.78
2018-03-04T04:46:58.605Z,-5.77
2018-03-04T04:47:58.529Z,-5.78
2018-03-04T04:48:58.404Z,-5.77
2018-03-04T04:49:58.298Z,-5.71
2018-03-04T04:50:58.216Z,-5.64
2018-03-04T04:51:58.142Z,-5.69
2018-03-04T04:52:57.998Z,-5.73
2018-03-04T04:53:57.937Z,-5.64
2018-03-04T04:54:57.799Z,-5.62
2018-03-04T04:55:57.704Z,-5.62
2018-03-04T04:56:57.601Z,-5.57
2018-03-04T04:57:57.525Z,-5.60
2018-03-04T04:58:57.398Z,-5.48
2018-03-04T04:59:57.290Z,-5.46
2018-03-04T05:00:57.204Z,-5.51
2018-03-04T05:01:57.163Z,-5.49
2018-03-04T05:02:57.074Z,-5.52
2018-03-04T05:03:56.975Z,-5.45
2018-03-04T05:04:56.828Z,-5.35
2018-03-04T05:05:56.722Z,-5.38
2018-03-04T05:06:56.605Z,-5.41
2018-03-04T05:07:56.541Z,-5.38
2018-03-04T05:08:56.415Z,-5.34
2018-03-04T05:09:56.333Z,-5.24
2018-03-04T05:10:56.235Z,-5.30
2018-03-04T05:11:56.123Z,-5.25
2018-03-04T05:12:56.021Z,-5.20
2018-03-04T05:13:55.891Z,-5.17
2018-03-04T05:14:55.801Z,-5.20
2018-03-04T05:15:55.728Z,-5.12
2018-03-04T05:16:55.596Z,-5.12
2018-03-04T05:17:55.506Z,-5.13
2018-03-04T05:18:55.401Z,-5.09
2018-03-04T05:19:55.311Z,-5.17
2018-03-04T05:20:55.202Z,-5.06
2018-03-04T05:21:55.154Z,-5.05
2018-03-04T05:22:55.007Z,-5.11
2018-03-04T05:23:54.904Z,-5.06
2018-03-04T05:24:54.822Z,-5.08
2018-03-04T05:25:54.730Z,-5.05
2018-03-04T05:26:54.618Z,-5.06
2018-03-04T05:27:54.620Z,-5.06
2018-03-04T05:28:54.470Z,-5.09
2018-03-04T05:29:54.353Z,-5.06
2018-03-04T05:30:54.260Z,-5.06
2018-03-04T05:31:54.188Z,-4.97
2018-03-04T05:32:54.034Z,-5.03
2018-03-04T05:33:53.995Z,-5.02
2018-03-04T05:34:53.819Z,-4.93
2018-03-04T05:35:53.711Z,-4.91
2018-03-04T05:36:53.612Z,-4.91
2018-03-04T05:37:53.506Z,-4.87
2018-03-04T05:38:53.406Z,-4.88
2018-03-04T05:39:53.366Z,-4.73
2018-03-04T05:40:53.203Z,-4.74
2018-03-04T05:41:53.113Z,-4.63
2018-03-04T05:42:53.002Z,-4.58
2018-03-04T05:43:52.926Z,-4.54
2018-03-04T05:44:52.817Z,-4.51
2018-03-04T05:45:52.759Z,-4.51
2018-03-04T05:46:52.633Z,-4.67
2018-03-04T05:47:52.515Z,-4.63
2018-03-04T05:48:52.405Z,-4.72
2018-03-04T05:49:52.309Z,-4.66
2018-03-04T05:50:52.220Z,-4.73
2018-03-04T05:51:52.174Z,-4.69
2018-03-04T05:52:52.045Z,-4.74
2018-03-04T05:53:51.926Z,-4.73
2018-03-04T05:54:51.833Z,-4.70
2018-03-04T05:55:51.764Z,-4.69
2018-03-04T05:56:51.642Z,-4.63
2018-03-04T05:57:51.602Z,-4.66
2018-03-04T05:58:51.471Z,-4.63
2018-03-04T05:59:51.357Z,-4.55
2018-03-04T06:00:51.236Z,-4.49
2018-03-04T06:01:51.166Z,-4.38
2018-03-04T06:02:51.072Z,-4.31
2018-03-04T06:03:50.958Z,-4.41
2018-03-04T06:04:50.829Z,-4.31
2018-03-04T06:05:50.725Z,-4.23
2018-03-04T06:06:50.622Z,-4.26
2018-03-04T06:07:50.513Z,-4.22
2018-03-04T06:08:50.420Z,-4.17
2018-03-04T06:09:50.352Z,-4.20
2018-03-04T06:10:50.230Z,-4.13
2018-03-04T06:11:50.127Z,-4.19
2018-03-04T06:12:50.019Z,-4.06
2018-03-04T06:13:49.936Z,-4.23
2018-03-04T06:14:49.815Z,-4.17
2018-03-04T06:15:49.769Z,-4.16
2018-03-04T06:16:49.659Z,-4.06
2018-03-04T06:17:49.551Z,-4.09
2018-03-04T06:18:49.432Z,-4.07
2018-03-04T06:19:49.386Z,-3.92
2018-03-04T06:20:49.255Z,-3.98
2018-03-04T06:21:49.196Z,-3.91
2018-03-04T06:22:49.058Z,-3.97
2018-03-04T06:23:48.994Z,-3.94
2018-03-04T06:24:48.855Z,-3.94
2018-03-04T06:25:48.752Z,-3.88
2018-03-04T06:26:48.651Z,-3.83
2018-03-04T06:27:48.567Z,-3.81
2018-03-04T06:28:48.488Z,-3.79
2018-03-04T06:29:48.409Z,-3.70
2018-03-04T06:30:48.254Z,-3.77
2018-03-04T06:31:48.147Z,-3.70
2018-03-04T06:32:48.061Z,-3.69
2018-03-04T06:33:48.021Z,-3.57
2018-03-04T06:34:47.849Z,-3.44
2018-03-04T06:35:47.758Z,-3.43
2018-03-04T06:36:47.679Z,-3.36
2018-03-04T06:37:47.572Z,-3.10
2018-03-04T06:38:47.459Z,-3.02
2018-03-04T06:39:47.389Z,-2.93
2018-03-04T06:40:47.267Z,-2.80
2018-03-04T06:41:47.167Z,-2.71
2018-03-04T06:42:47.110Z,-2.62
2018-03-04T06:43:46.992Z,-2.51
2018-03-04T06:44:46.900Z,-2.47
2018-03-04T06:45:46.814Z,-2.46
2018-03-04T06:46:46.703Z,-2.41
2018-03-04T06:47:46.608Z,-2.44
2018-03-04T06:48:46.563Z,-2.46
2018-03-04T06:49:46.458Z,-2.55
2018-03-04T06:50:46.395Z,-2.50
2018-03-04T06:51:53.748Z,-2.46
2018-03-04T06:52:53.603Z,-2.58
2018-03-04T06:53:53.467Z,-2.48
2018-03-04T06:54:53.405Z,-2.51
2018-03-04T06:55:53.263Z,-2.44
2018-03-04T06:56:53.191Z,-2.40
2018-03-04T06:57:53.125Z,-2.33
2018-03-04T06:58:52.981Z,-2.38
2018-03-04T06:59:52.873Z,-2.40
2018-03-04T07:00:52.793Z,-2.48
2018-03-04T07:01:52.695Z,-2.38
2018-03-04T07:02:52.547Z,-2.43
2018-03-04T07:03:52.507Z,-2.38
2018-03-04T07:04:52.391Z,-2.32
2018-03-04T07:05:52.260Z,-2.32
2018-03-04T07:06:52.168Z,-2.25
2018-03-04T07:07:52.065Z,-2.11
2018-03-04T07:08:51.960Z,-2.14
2018-03-04T07:09:51.886Z,-2.00
2018-03-04T07:10:51.798Z,-2.07
2018-03-04T07:11:51.684Z,-1.95
2018-03-04T07:12:51.564Z,-1.95
2018-03-04T07:13:51.484Z,-1.75
2018-03-04T07:14:51.392Z,-1.83
2018-03-04T07:15:51.333Z,-1.80
2018-03-04T07:16:51.205Z,-1.82
2018-03-04T07:17:51.114Z,-1.72
2018-03-04T07:18:51.015Z,-1.74
2018-03-04T07:19:50.917Z,-1.54
2018-03-04T07:20:50.827Z,-1.53
2018-03-04T07:21:50.715Z,-1.43
2018-03-04T07:22:50.619Z,-1.32
2018-03-04T07:23:50.537Z,-1.18
2018-03-04T07:24:50.446Z,-1.28
2018-03-04T07:25:50.295Z,-1.18
2018-03-04T07:26:50.209Z,-1.10
2018-03-04T07:27:50.156Z,-0.90
2018-03-04T07:28:50.015Z,-0.95
2018-03-04T07:29:49.912Z,-0.86
2018-03-04T07:30:49.808Z,-0.83
2018-03-04T07:31:49.710Z,-0.70
2018-03-04T07:32:49.622Z,-0.68
2018-03-04T07:33:49.562Z,-0.62
2018-03-04T07:34:49.426Z,-0.45
2018-03-04T07:35:49.340Z,-0.45
2018-03-04T07:36:49.233Z,-0.55
2018-03-04T07:37:49.148Z,-0.39
2018-03-04T07:38:49.048Z,-0.42
2018-03-04T07:39:49.007Z,-0.42
2018-03-04T07:40:48.856Z,-0.38
2018-03-04T07:41:48.770Z,-0.42
2018-03-04T07:42:48.689Z,-0.32
2018-03-04T07:43:48.584Z,-0.27
2018-03-04T07:44:48.472Z,-0.23
2018-03-04T07:45:48.461Z,-0.17
2018-03-04T07:46:48.279Z,-0.02
2018-03-04T07:47:48.203Z,-0.03
2018-03-04T07:48:48.102Z,0.13
2018-03-04T07:49:48.029Z,0.22
2018-03-04T07:50:47.871Z,0.22
2018-03-04T07:51:47.814Z,0.34
2018-03-04T07:52:47.686Z,0.37
2018-03-04T07:53:47.594Z,0.49
2018-03-04T07:54:47.499Z,0.56
2018-03-04T07:55:47.392Z,0.64
2018-03-04T07:56:47.324Z,0.74
2018-03-04T07:57:47.224Z,0.78
2018-03-04T07:58:47.169Z,0.84
2018-03-04T07:59:47.004Z,0.99
2018-03-04T08:00:46.922Z,1.17
2018-03-04T08:01:46.839Z,1.21
2018-03-04T08:02:46.720Z,1.43
2018-03-04T08:03:46.728Z,1.49
2018-03-04T08:04:46.571Z,1.67
2018-03-04T08:05:46.473Z,1.85
2018-03-04T08:06:46.376Z,1.77
2018-03-04T08:07:46.291Z,1.81
2018-03-04T08:08:46.156Z,2.04
2018-03-04T08:09:46.120Z,2.01
2018-03-04T08:10:46.004Z,2.08
2018-03-04T08:11:45.883Z,2.15
2018-03-04T08:12:45.805Z,2.33
2018-03-04T08:13:45.686Z,2.33
2018-03-04T08:14:45.624Z,2.29
2018-03-04T08:15:45.540Z,2.66
2018-03-04T08:16:45.394Z,2.71
2018-03-04T08:17:45.322Z,2.80
2018-03-04T08:18:45.215Z,3.08
2018-03-04T08:19:45.117Z,3.20
2018-03-04T08:20:45.009Z,3.37
2018-03-04T08:21:44.979Z,3.68
2018-03-04T08:22:44.832Z,3.74
2018-03-04T08:23:44.754Z,3.88
2018-03-04T08:24:44.637Z,3.92
2018-03-04T08:25:44.543Z,3.49
2018-03-04T08:26:44.459Z,3.25
2018-03-04T08:27:44.393Z,3.37
2018-03-04T08:28:44.277Z,3.92
2018-03-04T08:29:44.196Z,4.51
2018-03-04T08:30:44.090Z,5.09
2018-03-04T08:31:44.003Z,5.45
2018-03-04T08:32:43.909Z,5.52
2018-03-04T08:33:43.836Z,5.73
2018-03-04T08:34:43.740Z,6.25
2018-03-04T08:35:43.621Z,6.30
2018-03-04T08:36:43.557Z,5.88
2018-03-04T08:37:43.473Z,5.45
2018-03-04T08:38:43.393Z,4.94
2018-03-04T08:39:43.343Z,5.02
2018-03-04T08:40:43.167Z,4.88
2018-03-04T08:41:43.055Z,5.14
2018-03-04T08:42:42.973Z,5.30
2018-03-04T08:43:42.882Z,5.44
2018-03-04T08:44:42.779Z,5.63
2018-03-04T08:45:42.764Z,6.14
2018-03-04T08:46:42.586Z,6.36
2018-03-04T08:47:42.518Z,6.86
2018-03-04T08:48:42.438Z,6.50
2018-03-04T08:49:42.331Z,6.30
2018-03-04T08:50:42.243Z,5.67
2018-03-04T08:51:42.189Z,6.30
2018-03-04T08:52:42.098Z,6.01
2018-03-04T08:53:42.012Z,6.32
2018-03-04T08:54:41.888Z,6.20
2018-03-04T08:55:41.795Z,5.81
2018-03-04T08:56:41.688Z,5.78
2018-03-04T08:57:41.675Z,5.70
2018-03-04T08:58:41.531Z,5.48
2018-03-04T08:59:41.448Z,4.96
2018-03-04T09:00:41.357Z,4.62
2018-03-04T09:01:41.238Z,4.34
2018-03-04T09:02:41.186Z,4.14
2018-03-04T09:03:41.148Z,3.77
2018-03-04T09:04:41.027Z,3.52
2018-03-04T09:05:40.923Z,3.46
2018-03-04T09:06:40.781Z,3.13
2018-03-04T09:07:40.701Z,3.68
2018-03-04T09:08:40.613Z,3.89
2018-03-04T09:09:40.539Z,3.89
2018-03-04T09:10:40.422Z,4.11
2018-03-04T09:11:40.308Z,4.50
2018-03-04T09:12:40.241Z,4.28
2018-03-04T09:13:40.144Z,4.26
2018-03-04T09:14:40.054Z,4.43
2018-03-04T09:15:39.995Z,4.51
2018-03-04T09:16:39.859Z,4.64
2018-03-04T09:17:39.797Z,4.91
2018-03-04T09:18:39.684Z,4.57
2018-03-04T09:19:39.630Z,4.47
2018-03-04T09:20:39.532Z,5.08
2018-03-04T09:21:39.444Z,5.11
2018-03-04T09:22:39.357Z,5.01
2018-03-04T09:23:39.272Z,4.99
2018-03-04T09:24:39.153Z,5.59
2018-03-04T09:25:39.079Z,5.49
2018-03-04T09:26:38.962Z,5.09
2018-03-04T09:27:38.919Z,5.83
2018-03-04T09:28:38.857Z,6.35
2018-03-04T09:29:38.719Z,6.10
2018-03-04T09:30:38.587Z,6.38
2018-03-04T09:31:38.519Z,6.71
2018-03-04T09:32:38.413Z,6.45
2018-03-04T09:33:38.403Z,6.54
2018-03-04T09:34:38.210Z,6.97
2018-03-04T09:35:38.129Z,6.90
2018-03-04T09:36:38.029Z,7.26
2018-03-04T09:37:37.943Z,7.19
2018-03-04T09:38:37.860Z,6.63
2018-03-04T09:39:37.811Z,6.99
2018-03-04T09:40:37.670Z,6.87
2018-03-04T09:41:37.611Z,7.52
2018-03-04T09:42:37.496Z,6.86
2018-03-04T09:43:37.439Z,6.76
2018-03-04T09:44:37.372Z,7.32
2018-03-04T09:45:37.322Z,7.67
2018-03-04T09:46:37.166Z,8.03
2018-03-04T09:47:37.091Z,8.39
2018-03-04T09:48:36.986Z,7.71
2018-03-04T09:49:36.925Z,7.14
2018-03-04T09:50:36.820Z,7.36
2018-03-04T09:51:36.804Z,6.58
2018-03-04T09:52:36.656Z,5.80
2018-03-04T09:53:36.568Z,6.20
2018-03-04T09:54:36.483Z,6.55
2018-03-04T09:55:36.381Z,6.61
2018-03-04T09:56:36.268Z,6.73
2018-03-04T09:57:36.216Z,7.18
2018-03-04T09:58:36.086Z,6.42
2018-03-04T09:59:36.038Z,7.11
2018-03-04T10:00:35.914Z,8.27
2018-03-04T10:01:35.843Z,8.12
2018-03-04T10:02:35.731Z,7.99
2018-03-04T10:03:35.709Z,8.10
2018-03-04T10:04:35.562Z,7.19
2018-03-04T10:05:35.495Z,7.62
2018-03-04T10:06:35.388Z,7.11
2018-03-04T10:07:35.298Z,6.91
2018-03-04T10:08:35.211Z,6.60
2018-03-04T10:09:35.227Z,6.51
2018-03-04T10:10:35.082Z,6.71
2018-03-04T10:11:35.003Z,6.61
2018-03-04T10:12:34.863Z,6.68
2018-03-04T10:13:34.778Z,6.42
2018-03-04T10:14:34.703Z,5.95
2018-03-04T10:15:34.648Z,6.28
2018-03-04T10:16:34.528Z,7.29
2018-03-04T10:17:34.422Z,7.47
2018-03-04T10:18:34.333Z,7.14
2018-03-04T10:19:34.255Z,7.37
2018-03-04T10:20:34.193Z,8.02
2018-03-04T10:21:34.164Z,8.21
2018-03-04T10:22:33.971Z,7.55
2018-03-04T10:23:33.894Z,7.71
2018-03-04T10:24:33.792Z,7.79
2018-03-04T10:25:33.729Z,8.12
2018-03-04T10:26:33.628Z,7.67
2018-03-04T10:27:33.571Z,7.30
2018-03-04T10:28:33.451Z,6.91
2018-03-04T10:29:33.418Z,6.68
2018-03-04T10:30:33.275Z,6.81
2018-03-04T10:31:33.285Z,6.48
2018-03-04T10:32:33.088Z,6.21
2018-03-04T10:33:33.061Z,6.36
2018-03-04T10:34:32.923Z,6.05
2018-03-04T10:35:32.835Z,5.99
2018-03-04T10:36:32.771Z,6.11
2018-03-04T10:37:32.684Z,5.70
2018-03-04T10:38:32.630Z,5.60
2018-03-04T10:39:32.518Z,5.27
2018-03-04T10:40:32.438Z,5.14
2018-03-04T10:41:32.323Z,5.40
2018-03-04T10:42:32.288Z,5.19
2018-03-04T10:43:32.221Z,5.22
2018-03-04T10:44:32.082Z,5.12
2018-03-04T10:45:32.128Z,5.02
2018-03-04T10:46:31.899Z,4.99
2018-03-04T10:47:31.780Z,5.11
2018-03-04T10:48:31.672Z,5.35
2018-03-04T10:49:31.592Z,5.47
2018-03-04T10:50:31.502Z,5.65
2018-03-04T10:51:31.425Z,5.59
2018-03-04T10:52:31.352Z,5.63
2018-03-04T10:53:31.212Z,5.67
2018-03-04T10:54:31.120Z,5.96
2018-03-04T10:55:31.040Z,5.90
2018-03-04T10:56:30.956Z,6.05
2018-03-04T10:57:30.889Z,5.87
2018-03-04T10:58:30.789Z,5.70
2018-03-04T10:59:30.674Z,6.03
2018-03-04T11:00:30.578Z,6.10
2018-03-04T11:01:30.515Z,6.38
2018-03-04T11:02:30.435Z,6.46
2018-03-04T11:03:30.397Z,6.54
2018-03-04T11:04:30.255Z,6.64
2018-03-04T11:05:30.219Z,6.27
2018-03-04T11:06:30.071Z,6.57
2018-03-04T11:07:29.977Z,6.68
2018-03-04T11:08:29.875Z,6.63
2018-03-04T11:09:29.875Z,6.76
2018-03-04T11:10:29.730Z,6.42
2018-03-04T11:11:29.647Z,6.61
2018-03-04T11:12:29.515Z,6.72
2018-03-04T11:13:29.415Z,6.51
2018-03-04T11:14:29.340Z,6.57
2018-03-04T11:15:29.239Z,6.65
2018-03-04T11:16:29.130Z,6.58
2018-03-04T11:17:29.031Z,6.61
2018-03-04T11:18:28.949Z,6.75
2018-03-04T11:19:28.865Z,6.91
2018-03-04T11:20:28.844Z,7.37
2018-03-04T11:21:28.742Z,7.69
2018-03-04T11:22:28.585Z,7.84
2018-03-04T11:23:28.510Z,7.85
2018-03-04T11:24:28.419Z,7.51
2018-03-04T11:25:28.343Z,7.37
2018-03-04T11:26:28.261Z,7.57
2018-03-04T11:27:28.204Z,7.37
2018-03-04T11:28:28.101Z,6.87
2018-03-04T11:29:27.976Z,6.94
2018-03-04T11:30:27.897Z,7.18
2018-03-04T11:31:27.822Z,7.50
2018-03-04T11:32:27.735Z,7.81
2018-03-04T11:33:27.680Z,8.10
2018-03-04T11:34:27.564Z,8.22
2018-03-04T11:35:27.504Z,8.40
2018-03-04T11:36:27.362Z,8.31
2018-03-04T11:37:27.286Z,8.06
2018-03-04T11:38:27.239Z,8.45
2018-03-04T11:39:27.146Z,7.99
2018-03-04T11:40:26.987Z,7.79
2018-03-04T11:41:26.906Z,7.96
2018-03-04T11:42:26.865Z,8.29
2018-03-04T11:43:27.003Z,9.13
2018-03-04T11:44:26.827Z,9.63
2018-03-04T11:45:26.817Z,10.14
2018-03-04T11:46:26.764Z,10.66
2018-03-04T11:47:26.655Z,10.70
2018-03-04T11:48:26.885Z,10.13
2018-03-04T11:49:26.541Z,10.18
2018-03-04T11:50:26.120Z,9.65
2018-03-04T11:51:26.086Z,8.98
2018-03-04T11:52:25.956Z,8.42
2018-03-04T11:53:25.887Z,7.86
2018-03-04T11:54:25.785Z,8.03
2018-03-04T11:55:25.688Z,8.17
2018-03-04T11:56:25.606Z,8.55
2018-03-04T11:57:25.559Z,8.63
2018-03-04T11:58:25.419Z,8.68
2018-03-04T11:59:25.323Z,8.45
2018-03-04T12:00:25.235Z,8.45
2018-03-04T12:01:25.156Z,8.09
2018-03-04T12:02:25.106Z,7.89
2018-03-04T12:03:25.025Z,7.79
2018-03-04T12:04:24.872Z,7.67
2018-03-04T12:05:24.794Z,7.82
2018-03-04T12:06:24.691Z,8.04
2018-03-04T12:07:24.664Z,7.99
2018-03-04T12:08:24.553Z,8.43
2018-03-04T12:09:24.479Z,8.83
2018-03-04T12:10:24.353Z,9.35
2018-03-04T12:11:24.265Z,9.53
2018-03-04T12:12:24.164Z,9.96
2018-03-04T12:13:24.119Z,10.91
2018-03-04T12:14:24.024Z,10.90
2018-03-04T12:15:24.012Z,9.91
2018-03-04T12:16:23.836Z,9.03
2018-03-04T12:17:23.777Z,8.20
2018-03-04T12:18:23.709Z,8.20
2018-03-04T12:19:23.594Z,8.36
2018-03-04T12:20:23.516Z,8.12
2018-03-04T12:21:23.466Z,8.18
2018-03-04T12:22:23.325Z,8.43
2018-03-04T12:23:23.271Z,8.28
2018-03-04T12:24:23.130Z,8.46
2018-03-04T12:25:23.192Z,8.76
2018-03-04T12:26:22.960Z,8.96
2018-03-04T12:27:22.913Z,9.53
2018-03-04T12:28:22.770Z,9.70
2018-03-04T12:29:22.672Z,9.49
2018-03-04T12:30:22.582Z,9.55
2018-03-04T12:31:22.533Z,9.22
2018-03-04T12:32:22.431Z,9.13
2018-03-04T12:33:22.380Z,9.48
2018-03-04T12:34:22.270Z,9.38
2018-03-04T12:35:22.156Z,9.91
2018-03-04T12:36:22.075Z,10.57
2018-03-04T12:37:21.976Z,10.60
2018-03-04T12:38:21.907Z,10.66
2018-03-04T12:39:21.897Z,10.46
2018-03-04T12:40:21.762Z,11.28
2018-03-04T12:41:21.630Z,11.81
2018-03-04T12:42:21.624Z,12.26
2018-03-04T12:43:21.473Z,12.13
2018-03-04T12:44:21.399Z,12.48
2018-03-04T12:45:21.319Z,12.80
2018-03-04T12:46:21.198Z,12.76
2018-03-04T12:47:21.139Z,12.30
2018-03-04T12:48:21.032Z,12.81
2018-03-04T12:49:20.953Z,12.46
2018-03-04T12:50:20.890Z,12.33
2018-03-04T12:51:20.854Z,12.59
2018-03-04T12:52:20.676Z,12.22
2018-03-04T12:53:20.598Z,12.15
2018-03-04T12:54:20.533Z,12.31
2018-03-04T12:55:20.407Z,11.39
2018-03-04T12:56:20.338Z,11.49
2018-03-04T12:57:20.280Z,12.07
2018-03-04T12:58:20.189Z,12.46
2018-03-04T12:59:20.075Z,11.82
2018-03-04T13:00:19.989Z,12.48